Time;durP1;ratioP1;P1;durP2;ratioP2;P2;SDS_P1;SDS_P2;PMS_P1;PMS_P2;Temp;Humidity;BMP_temperature;BMP_pressure;BME280_temperature;BME280_humidity;BME280_pressure;Samples;Min_cycle;Max_cycle;Signal;HPM_P1;HPM_P2
2022/01/25 00:09:15;;;;;;;49.22;27.40;;;;;;;4.19;100.00;103612.66;5063776;28;20423;-30
2022/01/25 00:25:56;;;;;;;50.83;26.75;;;;;;;4.12;100.00;103606.16;5063609;28;20502;-30
2022/01/25 00:28:27;;;;;;;48.88;26.10;;;;;;;4.14;100.00;103610.47;5073017;28;20052;-33
2022/01/25 00:31:02;;;;;;;51.13;26.02;;;;;;;4.17;100.00;103612.00;5072129;28;20041;-31
2022/01/25 00:33:32;;;;;;;48.03;25.45;;;;;;;4.14;100.00;103609.59;5072887;28;20122;-32
2022/01/25 00:36:03;;;;;;;48.45;26.73;;;;;;;4.10;100.00;103599.97;5071860;28;20059;-32
2022/01/25 00:38:31;;;;;;;54.05;28.27;;;;;;;4.05;100.00;103600.53;5072956;28;20048;-34
2022/01/25 00:40:59;;;;;;;48.58;26.65;;;;;;;4.04;100.00;103597.94;5072608;28;20055;-32
2022/01/25 00:43:27;;;;;;;49.72;26.90;;;;;;;4.02;100.00;103597.28;5070933;28;20056;-32
2022/01/25 00:45:59;;;;;;;45.05;23.90;;;;;;;4.04;100.00;103593.28;5072543;28;20522;-37
2022/01/25 00:48:41;;;;;;;53.95;28.55;;;;;;;4.04;100.00;103593.28;5072636;28;20053;-32
2022/01/25 00:51:46;;;;;;;48.05;26.13;;;;;;;4.06;100.00;103585.66;5070288;28;20604;-33
2022/01/25 00:54:16;;;;;;;47.95;25.40;;;;;;;4.05;100.00;103589.47;5072480;28;20084;-32
2022/01/25 00:56:47;;;;;;;47.97;25.75;;;;;;;4.05;100.00;103597.75;5072615;28;20052;-33
2022/01/25 00:59:18;;;;;;;45.72;24.80;;;;;;;4.04;100.00;103598.81;5071778;28;20049;-31
2022/01/25 01:01:48;;;;;;;51.38;27.80;;;;;;;4.04;100.00;103592.44;5063307;28;20054;-33
2022/01/25 01:04:17;;;;;;;49.22;26.52;;;;;;;4.02;100.00;103592.63;5071721;28;20102;-32
2022/01/25 01:06:47;;;;;;;48.85;26.13;;;;;;;4.04;100.00;103586.91;5072381;28;20037;-36
2022/01/25 01:09:17;;;;;;;49.20;26.17;;;;;;;4.07;100.00;103584.63;5072240;28;20422;-35
2022/01/25 01:11:52;;;;;;;46.58;24.77;;;;;;;4.05;100.00;103595.00;5071275;28;20044;-31
2022/01/25 01:14:27;;;;;;;48.25;26.27;;;;;;;4.04;100.00;103579.47;5071993;28;20071;-32
2022/01/25 01:17:16;;;;;;;52.50;27.48;;;;;;;4.02;100.00;103584.31;5072295;28;20047;-32
2022/01/25 01:31:07;;;;;;;51.78;27.00;;;;;;;4.08;100.00;103582.72;5058865;28;20135;-32
2022/01/25 01:37:06;;;;;;;48.70;26.00;;;;;;;4.09;100.00;103574.25;5058569;28;20052;-30
2022/01/25 01:42:39;;;;;;;45.53;24.02;;;;;;;4.09;100.00;103577.00;5050435;28;20052;-31
2022/01/25 01:45:26;;;;;;;41.63;23.00;;;;;;;4.11;100.00;103571.28;5062427;28;20048;-34
2022/01/25 01:48:00;;;;;;;45.75;25.25;;;;;;;4.11;100.00;103572.16;5070479;28;20060;-32
2022/01/25 01:50:31;;;;;;;44.80;24.65;;;;;;;4.13;100.00;103574.72;5071302;28;20513;-30
2022/01/25 01:53:00;;;;;;;37.88;20.58;;;;;;;4.15;100.00;103572.63;5071400;28;20041;-33
2022/01/25 01:55:30;;;;;;;48.83;26.13;;;;;;;4.20;100.00;103577.59;5070454;28;20049;-30
2022/01/25 01:58:00;;;;;;;53.67;28.10;;;;;;;4.20;100.00;103570.13;5071343;28;20394;-30
2022/01/25 02:00:32;;;;;;;49.67;26.38;;;;;;;4.21;100.00;103571.84;5059760;28;20052;-30
2022/01/25 02:03:00;;;;;;;52.22;28.17;;;;;;;4.15;100.00;103567.97;5071296;28;20040;-33
2022/01/25 02:05:30;;;;;;;54.65;28.55;;;;;;;4.10;100.00;103564.03;5070911;28;20076;-30
2022/01/25 02:07:57;;;;;;;52.78;28.17;;;;;;;4.05;100.00;103570.13;5070407;28;20418;-30
2022/01/25 02:10:25;;;;;;;56.58;29.70;;;;;;;4.02;100.00;103577.94;5070913;28;20494;-31
2022/01/25 02:12:56;;;;;;;52.70;27.52;;;;;;;3.99;100.00;103570.06;5071037;28;20509;-33
2022/01/25 02:15:25;;;;;;;53.42;27.77;;;;;;;3.98;100.00;103560.06;5069529;28;20056;-32
2022/01/25 02:17:59;;;;;;;47.00;26.02;;;;;;;3.98;100.00;103577.50;5071197;28;20490;-32
2022/01/25 02:23:18;;;;;;;50.35;27.33;;;;;;;3.98;100.00;103560.06;5059889;28;20040;-32
2022/01/25 02:25:46;;;;;;;56.47;28.63;;;;;;;3.98;100.00;103568.34;5071357;28;20055;-33
2022/01/25 02:28:14;;;;;;;52.83;27.52;;;;;;;3.99;100.00;103572.81;5071244;28;20077;-33
2022/01/25 02:30:43;;;;;;;48.38;26.55;;;;;;;3.98;100.00;103557.28;5069847;28;20052;-37
2022/01/25 02:33:11;;;;;;;51.35;28.58;;;;;;;3.97;100.00;103555.56;5070928;28;20056;-38
2022/01/25 02:35:40;;;;;;;56.88;29.15;;;;;;;3.98;100.00;103558.16;5069735;28;20055;-30
2022/01/25 02:38:08;;;;;;;61.45;31.23;;;;;;;3.95;100.00;103555.75;5070557;28;20053;-33
2022/01/25 02:40:36;;;;;;;56.38;29.25;;;;;;;3.90;100.00;103549.94;5071030;28;20048;-32
2022/01/25 02:43:04;;;;;;;56.22;29.88;;;;;;;3.90;100.00;103540.78;5070057;28;20049;-32
2022/01/25 02:45:35;;;;;;;53.70;27.92;;;;;;;3.89;100.00;103547.38;5070787;28;20080;-32
2022/01/25 02:50:50;;;;;;;49.10;25.52;;;;;;;3.92;100.00;103549.75;5070334;28;20049;-33
2022/01/25 02:53:18;;;;;;;54.63;28.27;;;;;;;3.96;100.00;103553.84;5070772;28;20052;-35
2022/01/25 02:55:46;;;;;;;49.75;26.48;;;;;;;3.99;100.00;103557.09;5069552;28;20053;-30
2022/01/25 02:58:14;;;;;;;51.08;27.35;;;;;;;4.01;100.00;103560.50;5070158;28;20048;-31
2022/01/25 03:00:41;;;;;;;53.78;29.05;;;;;;;4.04;100.00;103554.59;5061098;28;20048;-31
2022/01/25 03:03:09;;;;;;;54.25;28.40;;;;;;;4.04;100.00;103554.59;5070638;28;20094;-33
2022/01/25 03:05:37;;;;;;;50.10;26.50;;;;;;;4.04;100.00;103553.75;5069888;28;20131;-32
2022/01/25 03:08:11;;;;;;;54.53;28.00;;;;;;;4.04;100.00;103553.75;5070392;28;20052;-33
2022/01/25 03:10:41;;;;;;;55.20;29.02;;;;;;;4.03;100.00;103555.66;5070379;28;20055;-31
2022/01/25 03:13:14;;;;;;;49.38;26.63;;;;;;;4.05;100.00;103552.69;5070037;28;20051;-32
2022/01/25 03:15:56;;;;;;;51.67;27.80;;;;;;;4.03;100.00;103541.84;5070446;28;20036;-35
2022/01/25 03:18:44;;;;;;;57.00;29.75;;;;;;;4.00;100.00;103546.88;5069645;28;20060;-34
2022/01/25 03:21:17;;;;;;;52.85;26.85;;;;;;;4.00;100.00;103538.59;5070352;28;20051;-32
2022/01/25 03:23:48;;;;;;;52.28;27.58;;;;;;;4.04;100.00;103535.25;5070212;28;20392;-32
2022/01/25 03:26:16;;;;;;;46.85;24.52;;;;;;;4.06;100.00;103533.16;5069680;28;20049;-31
2022/01/25 03:28:44;;;;;;;52.97;28.75;;;;;;;4.08;100.00;103528.31;5070626;28;20048;-35
2022/01/25 03:31:12;;;;;;;47.25;25.55;;;;;;;4.09;100.00;103532.78;5070269;28;20056;-31
2022/01/25 03:33:41;;;;;;;38.08;20.52;;;;;;;4.12;100.00;103535.19;5069405;28;20072;-31
2022/01/25 03:36:11;;;;;;;46.55;24.88;;;;;;;4.14;100.00;103527.56;5069964;28;20052;-33
2022/01/25 03:38:40;;;;;;;38.83;21.15;;;;;;;4.14;100.00;103521.19;5070256;28;20075;-31
2022/01/25 03:41:12;;;;;;;39.95;20.67;;;;;;;4.17;100.00;103515.28;5069374;28;20057;-31
2022/01/25 03:43:40;;;;;;;54.67;29.02;;;;;;;4.17;100.00;103520.81;5070100;28;20051;-33
2022/01/25 03:46:14;;;;;;;41.70;22.85;;;;;;;4.17;100.00;103523.56;5069129;28;20517;-30
2022/01/25 03:51:27;;;;;;;47.47;25.45;;;;;;;4.20;100.00;103522.31;5073811;28;20052;-33
2022/01/25 03:53:54;;;;;;;51.13;27.50;;;;;;;4.20;100.00;103525.09;5072874;28;20044;-32
2022/01/25 03:56:24;;;;;;;49.85;26.52;;;;;;;4.18;100.00;103525.28;5073989;28;20402;-33
2022/01/25 03:58:52;;;;;;;53.75;30.55;;;;;;;4.13;100.00;103530.50;5072826;28;20052;-32
2022/01/25 04:01:20;;;;;;;58.47;31.48;;;;;;;4.08;100.00;103521.94;5072900;28;20533;-31
2022/01/25 04:03:57;;;;;;;58.83;31.10;;;;;;;4.04;100.00;103515.06;5072328;28;20055;-32
2022/01/25 04:06:29;;;;;;;52.45;27.63;;;;;;;4.00;100.00;103525.63;5073663;28;20049;-31
2022/01/25 04:08:57;;;;;;;49.25;25.55;;;;;;;4.01;100.00;103520.97;5072350;28;20048;-31
2022/01/25 04:11:26;;;;;;;46.15;23.35;;;;;;;4.01;100.00;103509.91;5073268;28;20058;-36
2022/01/25 04:13:56;;;;;;;48.95;25.55;;;;;;;4.05;100.00;103519.53;5073253;28;20045;-32
2022/01/25 04:16:29;;;;;;;49.92;25.77;;;;;;;4.06;100.00;103522.13;5073448;28;20239;-31
2022/01/25 04:19:06;;;;;;;;;;;;;;;4.04;100.00;103520.59;5073774;28;20044;-37
2022/01/25 04:24:43;;;;;;;45.65;24.65;;;;;;;4.01;100.00;103520.97;5072692;28;20306;-38
2022/01/25 04:25:01;;;;;;;55.65;29.17;;;;;;;3.99;100.00;103529.47;5072848;28;20502;-35
2022/01/25 04:27:31;;;;;;;50.47;26.50;;;;;;;3.97;100.00;103523.28;5063583;28;20044;-31
2022/01/25 04:29:59;;;;;;;57.20;29.73;;;;;;;3.96;100.00;103520.72;5068846;28;20044;-32
2022/01/25 04:32:33;;;;;;;57.40;30.60;;;;;;;3.95;100.00;103521.75;5061800;28;20044;-30
2022/01/25 04:35:12;;;;;;;56.95;29.20;;;;;;;3.95;100.00;103521.75;5072027;28;20040;-31
2022/01/25 04:48:58;;;;;;;49.17;25.77;;;;;;;4.00;100.00;103510.97;5072752;28;20045;-30
2022/01/25 04:51:42;;;;;;;56.40;28.75;;;;;;;4.00;100.00;103508.19;5071993;28;20055;-30
2022/01/25 04:54:17;;;;;;;39.17;21.33;;;;;;;4.00;100.00;103514.59;5072373;28;20051;-32
2022/01/25 04:56:53;;;;;;;51.13;27.40;;;;;;;4.01;100.00;103505.25;5071689;28;20087;-31
2022/01/25 04:59:27;;;;;;;54.75;28.20;;;;;;;4.01;100.00;103496.97;5072275;28;20048;-30
2022/01/25 05:02:02;;;;;;;51.70;28.00;;;;;;;4.01;100.00;103498.88;5072488;28;20049;-31
2022/01/25 05:04:35;;;;;;;63.53;32.10;;;;;;;3.96;100.00;103504.13;5071524;28;20135;-32
2022/01/25 05:07:14;;;;;;;57.17;29.67;;;;;;;3.94;100.00;103515.38;5072356;28;20040;-32
2022/01/25 05:09:43;;;;;;;61.50;31.63;;;;;;;3.93;100.00;103510.03;5072115;28;20051;-32
2022/01/25 05:12:12;;;;;;;54.83;28.45;;;;;;;3.95;100.00;103510.69;5071236;28;20110;-32
2022/01/25 05:14:57;;;;;;;43.20;23.30;;;;;;;3.97;100.00;103514.13;5071928;28;20503;-31
2022/01/25 05:17:33;;;;;;;54.63;28.48;;;;;;;3.95;100.00;103516.22;5071239;28;20067;-33
2022/01/25 05:22:43;;;;;;;52.55;28.02;;;;;;;3.97;100.00;103514.13;5072228;28;20415;-32
2022/01/25 05:25:11;;;;;;;42.83;23.33;;;;;;;3.99;100.00;103512.91;5070756;28;20056;-31
2022/01/25 05:27:38;;;;;;;48.53;26.02;;;;;;;4.04;100.00;103515.06;5071808;28;20063;-30
2022/01/25 05:30:09;;;;;;;43.92;23.80;;;;;;;4.07;100.00;103514.69;5072071;28;20025;-33
2022/01/25 05:32:37;;;;;;;35.35;19.65;;;;;;;4.08;100.00;103517.25;5070742;28;20040;-30
2022/01/25 05:35:06;;;;;;;38.63;21.33;;;;;;;4.11;100.00;103516.03;5071430;28;20095;-30
2022/01/25 05:37:40;;;;;;;45.33;24.83;;;;;;;4.11;100.00;103511.34;5071433;28;20052;-31
2022/01/25 05:40:14;;;;;;;58.13;29.55;;;;;;;4.05;100.00;103511.25;5070699;28;20056;-29
2022/01/25 05:43:52;;;;;;;60.00;31.30;;;;;;;3.98;100.00;103516.72;5071529;28;20057;-30
2022/01/25 05:45:56;;;;;;;55.08;29.38;;;;;;;3.96;100.00;103512.41;5070619;28;20028;-32
2022/01/25 05:48:24;;;;;;;56.35;29.10;;;;;;;3.93;100.00;103521.94;5071547;28;20040;-30
2022/01/25 05:50:53;;;;;;;52.08;27.38;;;;;;;3.91;100.00;103526.78;5071369;28;20040;-30
2022/01/25 05:53:21;;;;;;;61.40;31.80;;;;;;;3.89;100.00;103519.75;5070343;28;20084;-31
2022/01/25 05:55:49;;;;;;;55.92;29.83;;;;;;;3.87;100.00;103513.53;5070421;28;20040;-31
2022/01/25 05:58:17;;;;;;;55.63;29.55;;;;;;;3.89;100.00;103517.84;5071278;28;20127;-31
2022/01/25 06:00:46;;;;;;;51.47;27.30;;;;;;;3.91;100.00;103520.41;5070222;28;20541;-32
2022/01/25 06:03:14;;;;;;;58.70;29.10;;;;;;;3.94;100.00;103515.38;5071159;28;20045;-37
2022/01/25 06:05:42;;;;;;;47.97;26.08;;;;;;;3.96;100.00;103513.28;5071006;28;20452;-38
2022/01/25 06:08:10;;;;;;;52.10;28.42;;;;;;;3.97;100.00;103512.22;5070053;28;20045;-35
2022/01/25 06:10:38;;;;;;;53.08;28.05;;;;;;;3.98;100.00;103513.94;5071143;28;20052;-29
2022/01/25 06:13:06;;;;;;;54.08;28.77;;;;;;;3.98;100.00;103510.31;5070031;28;20055;-32
2022/01/25 06:15:34;;;;;;;60.30;30.10;;;;;;;3.95;100.00;103503.28;5070311;28;20060;-31
2022/01/25 06:18:03;;;;;;;60.33;31.42;;;;;;;3.88;100.00;103504.22;5070732;28;20499;-31
2022/01/25 06:20:32;;;;;;;58.25;31.30;;;;;;;3.83;100.00;103510.28;5070302;28;20048;-30
2022/01/25 06:23:00;;;;;;;57.10;30.25;;;;;;;3.81;100.00;103510.47;5070629;28;20044;-30
2022/01/25 06:25:28;;;;;;;56.20;29.80;;;;;;;3.78;100.00;103515.56;5070423;28;20434;-32
2022/01/25 06:27:56;;;;;;;56.03;30.65;;;;;;;3.79;100.00;103511.75;5069729;28;20049;-32
2022/01/25 06:30:24;;;;;;;53.85;28.40;;;;;;;3.79;100.00;103517.28;5070882;28;20055;-30
2022/01/25 06:32:51;;;;;;;52.20;27.52;;;;;;;3.80;100.00;103510.66;5070530;28;20055;-31
2022/01/25 06:35:20;;;;;;;50.53;27.27;;;;;;;3.85;100.00;103516.50;5069763;28;20048;-32
2022/01/25 06:37:49;;;;;;;59.22;30.90;;;;;;;3.88;100.00;103515.25;5070825;28;20044;-31
2022/01/25 06:40:17;;;;;;;50.15;27.63;;;;;;;3.89;100.00;103523.34;5071138;28;20044;-35
2022/01/25 06:42:45;;;;;;;49.20;25.70;;;;;;;3.91;100.00;103529.56;5069948;28;20044;-31
2022/01/25 06:45:16;;;;;;;50.03;27.40;;;;;;;3.93;100.00;103524.69;5070689;28;20052;-31
2022/01/25 06:47:45;;;;;;;45.78;25.23;;;;;;;3.95;100.00;103530.03;5070663;28;20044;-31
2022/01/25 06:50:14;;;;;;;53.67;27.98;;;;;;;3.94;100.00;103528.31;5070067;28;20055;-33
2022/01/25 06:52:44;;;;;;;51.33;28.85;;;;;;;3.94;100.00;103522.78;5070454;28;20045;-29
2022/01/25 06:55:20;;;;;;;51.05;26.77;;;;;;;3.94;100.00;103525.56;5060052;28;20056;-30
2022/01/25 06:57:48;;;;;;;45.78;24.55;;;;;;;3.93;100.00;103523.84;5069817;28;20049;-31
2022/01/25 07:00:20;;;;;;;55.08;28.48;;;;;;;3.92;100.00;103525.75;5070308;28;20049;-32
2022/01/25 07:02:48;;;;;;;46.20;25.67;;;;;;;3.90;100.00;103526.97;5069735;28;20495;-30
2022/01/25 07:05:16;;;;;;;46.38;25.80;;;;;;;3.93;100.00;103533.00;5070528;28;20076;-32
2022/01/25 07:07:47;;;;;;;51.88;28.15;;;;;;;3.95;100.00;103527.28;5070666;28;20041;-31
2022/01/25 07:10:15;;;;;;;54.40;29.13;;;;;;;3.95;100.00;103528.13;5069074;28;20048;-30
2022/01/25 07:12:43;;;;;;;58.65;30.58;;;;;;;3.91;100.00;103529.56;5070357;28;20049;-30
2022/01/25 07:15:12;;;;;;;57.35;29.83;;;;;;;3.89;100.00;103528.03;5070389;28;20059;-31
2022/01/25 07:17:41;;;;;;;58.22;30.33;;;;;;;3.84;100.00;103531.34;5069936;28;20404;-30
2022/01/25 07:20:09;;;;;;;58.67;30.23;;;;;;;3.85;100.00;103522.00;5068811;28;20418;-35
2022/01/25 07:22:38;;;;;;;59.05;30.67;;;;;;;3.80;100.00;103525.34;5070406;28;20045;-30
2022/01/25 07:25:10;;;;;;;52.55;28.92;;;;;;;3.81;100.00;103518.78;5071175;28;20064;-31
2022/01/25 07:27:38;;;;;;;48.15;26.52;;;;;;;3.80;100.00;103519.81;5074190;28;20052;-30
2022/01/25 07:30:07;;;;;;;49.55;27.60;;;;;;;3.82;100.00;103519.63;5074040;28;20037;-30
2022/01/25 07:32:35;;;;;;;48.95;26.45;;;;;;;3.86;100.00;103518.22;5073206;28;20053;-36
2022/01/25 07:35:09;;;;;;;46.63;25.05;;;;;;;3.89;100.00;103511.44;5073636;28;20052;-30
2022/01/25 07:37:38;;;;;;;52.35;27.77;;;;;;;3.89;100.00;103511.44;5073897;28;20161;-34
2022/01/25 07:40:15;;;;;;;48.38;26.77;;;;;;;3.92;100.00;103514.69;5073121;28;20044;-32
2022/01/25 07:42:47;;;;;;;45.42;24.77;;;;;;;3.93;100.00;103513.66;5072206;28;20059;-33
2022/01/25 07:45:35;;;;;;;53.45;28.23;;;;;;;3.94;100.00;103506.22;5071018;28;20055;-30
2022/01/25 07:48:04;;;;;;;43.90;24.25;;;;;;;3.94;100.00;103509.84;5072576;28;20417;-32
2022/01/25 07:50:32;;;;;;;45.40;24.83;;;;;;;3.97;100.00;103508.63;5073378;28;20040;-36
2022/01/25 07:53:05;;;;;;;53.83;27.55;;;;;;;3.96;100.00;103509.66;5072391;28;20144;-37
2022/01/25 07:55:35;;;;;;;49.88;26.52;;;;;;;3.94;100.00;103509.84;5063741;28;20052;-32
2022/01/25 07:58:03;;;;;;;54.20;29.83;;;;;;;3.93;100.00;103515.56;5073032;28;20060;-32
2022/01/25 08:00:31;;;;;;;58.45;28.45;;;;;;;3.89;100.00;103512.31;5071790;28;20502;-33
2022/01/25 08:03:00;;;;;;;54.10;29.05;;;;;;;3.88;100.00;103512.50;5072470;28;20124;-30
2022/01/25 08:05:44;;;;;;;65.47;32.88;;;;;;;3.83;100.00;103520.50;5059348;28;20052;-32
2022/01/25 08:08:29;;;;;;;58.95;30.65;;;;;;;3.81;100.00;103518.78;5071810;28;20051;-35
2022/01/25 08:11:31;;;;;;;45.58;24.85;;;;;;;3.81;100.00;103523.44;5063703;28;20063;-31
2022/01/25 08:14:15;;;;;;;55.72;28.33;;;;;;;3.83;100.00;103523.25;5070407;28;20057;-34
2022/01/25 08:16:44;;;;;;;43.22;22.55;;;;;;;3.86;100.00;103523.72;5072089;28;20114;-36
2022/01/25 08:19:17;;;;;;;44.72;24.10;;;;;;;3.90;100.00;103526.97;5072692;28;20139;-34
2022/01/25 08:21:46;;;;;;;47.72;25.60;;;;;;;3.92;100.00;103520.22;5072120;28;20166;-30
2022/01/25 08:24:29;;;;;;;;;;;;;;;3.86;100.00;103515.44;5069996;28;20186;-31
2022/01/25 08:27:01;;;;;;;51.70;26.98;;;;;;;3.81;100.00;103518.78;5073318;28;19927;-30
2022/01/25 08:29:38;;;;;;;49.67;26.65;;;;;;;3.83;100.00;103521.34;5072513;28;20134;-32
2022/01/25 08:32:10;;;;;;;44.67;24.03;;;;;;;3.87;100.00;103525.44;5073083;28;20044;-34
2022/01/25 08:34:52;;;;;;;45.00;23.83;;;;;;;3.91;100.00;103528.69;5070308;28;20495;-31
2022/01/25 08:37:23;;;;;;;52.47;27.17;;;;;;;3.92;100.00;103524.88;5072482;28;20135;-32
2022/01/25 08:39:51;;;;;;;52.58;28.17;;;;;;;3.93;100.00;103532.13;5071985;28;20135;-32
2022/01/25 08:42:27;;;;;;;54.03;28.42;;;;;;;3.93;100.00;103532.13;5070880;28;20099;-34
2022/01/25 08:44:58;;;;;;;;;;;;;;;3.85;100.00;103532.22;5073324;28;20045;-32
2022/01/25 08:47:31;;;;;;;58.30;29.80;;;;;;;3.80;100.00;103532.75;5072798;28;20012;-32
2022/01/25 08:50:08;;;;;;;55.60;29.20;;;;;;;3.83;100.00;103543.44;5071755;28;20098;-30
2022/01/25 08:52:50;;;;;;;54.92;29.08;;;;;;;3.84;100.00;103533.25;5029937;28;20057;-35
2022/01/25 08:55:30;;;;;;;53.40;27.85;;;;;;;3.86;100.00;103537.53;5029419;28;20142;-31
2022/01/25 08:58:19;;;;;;;54.53;27.10;;;;;;;3.88;100.00;103546.50;5015482;28;20057;-31
2022/01/25 09:00:47;;;;;;;55.80;28.35;;;;;;;3.91;100.00;103548.03;5028851;28;20132;-32
2022/01/25 09:03:16;;;;;;;65.68;32.63;;;;;;;3.89;100.00;103545.47;5029190;28;20053;-33
2022/01/25 09:05:43;;;;;;;57.15;30.48;;;;;;;3.90;100.00;103546.31;5029961;28;20136;-32
2022/01/25 09:08:16;;;;;;;59.88;30.92;;;;;;;3.91;100.00;103543.38;5030082;28;20425;-31
2022/01/25 09:10:44;;;;;;;56.15;28.80;;;;;;;3.91;100.00;103542.50;5029143;28;20565;-31
2022/01/25 09:13:12;;;;;;;56.90;30.17;;;;;;;3.88;100.00;103540.13;5029932;28;20409;-32
2022/01/25 09:15:41;;;;;;;56.25;29.15;;;;;;;3.86;100.00;103534.78;5029566;28;20056;-32
2022/01/25 09:18:09;;;;;;;57.63;30.02;;;;;;;3.84;100.00;103547.06;5028920;28;20096;-32
2022/01/25 09:20:37;;;;;;;55.70;30.45;;;;;;;3.84;100.00;103544.28;5029798;28;20053;-30
2022/01/25 09:23:05;;;;;;;56.95;30.27;;;;;;;3.83;100.00;103545.34;5035860;28;20048;-35
2022/01/25 09:25:33;;;;;;;53.55;29.23;;;;;;;3.82;100.00;103544.50;5071088;28;20086;-31
2022/01/25 09:28:01;;;;;;;50.95;28.15;;;;;;;3.86;100.00;103545.81;5071660;28;20051;-38
2022/01/25 09:30:30;;;;;;;57.25;30.60;;;;;;;3.90;100.00;103546.31;5070906;28;20131;-35
2022/01/25 09:32:59;;;;;;;54.70;29.38;;;;;;;3.92;100.00;103552.50;5071921;28;20411;-37
2022/01/25 09:35:27;;;;;;;57.03;31.23;;;;;;;3.96;100.00;103556.63;5071427;28;20501;-31
2022/01/25 09:37:54;;;;;;;52.92;27.92;;;;;;;4.01;100.00;103556.88;5070885;28;20055;-35
2022/01/25 09:40:22;;;;;;;40.50;22.02;;;;;;;4.03;100.00;103552.88;5071504;28;20529;-31
2022/01/25 09:42:53;;;;;;;47.05;25.08;;;;;;;4.08;100.00;103558.72;5071626;28;20499;-31
2022/01/25 09:45:21;;;;;;;50.38;27.83;;;;;;;4.11;100.00;103560.25;5070980;28;20577;-32
2022/01/25 09:47:51;;;;;;;59.00;30.70;;;;;;;4.14;100.00;103559.88;5069527;28;20576;-31
2022/01/25 09:50:20;;;;;;;44.45;24.33;;;;;;;4.17;100.00;103565.00;5071250;28;20083;-32
2022/01/25 09:52:48;;;;;;;46.60;25.70;;;;;;;4.19;100.00;103557.41;5070583;28;20072;-33
2022/01/25 09:55:18;;;;;;;45.72;24.48;;;;;;;4.22;100.00;103567.19;5070978;28;20044;-32
2022/01/25 09:57:46;;;;;;;54.40;28.80;;;;;;;4.23;100.00;103569.75;5071616;28;20040;-33
2022/01/25 10:00:19;;;;;;;60.10;31.30;;;;;;;4.22;100.00;103565.28;5070667;28;20048;-36
2022/01/25 10:02:55;;;;;;;49.90;26.83;;;;;;;4.20;100.00;103559.09;5071354;28;20058;-33
2022/01/25 10:05:30;;;;;;;57.33;31.45;;;;;;;4.16;100.00;103568.81;5071161;28;20048;-32
2022/01/25 10:08:00;;;;;;;51.90;28.52;;;;;;;4.14;100.00;103562.63;5070313;28;20048;-34
2022/01/25 10:10:29;;;;;;;53.88;29.38;;;;;;;4.15;100.00;103562.44;5071297;28;20047;-31
2022/01/25 10:13:08;;;;;;;43.42;23.52;;;;;;;4.19;100.00;103571.22;5070399;28;20178;-31
2022/01/25 10:15:36;;;;;;;55.72;30.17;;;;;;;4.19;100.00;103568.44;5070895;28;20132;-31
2022/01/25 10:18:13;;;;;;;55.03;29.13;;;;;;;4.15;100.00;103573.50;5070990;28;20052;-31
2022/01/25 10:20:44;;;;;;;55.72;30.48;;;;;;;4.12;100.00;103573.88;5070474;28;20140;-32
2022/01/25 10:23:15;;;;;;;60.65;31.98;;;;;;;4.11;100.00;103577.69;5071306;28;20055;-31
2022/01/25 10:25:45;;;;;;;56.88;30.02;;;;;;;4.11;100.00;103582.34;5071130;28;20048;-30
2022/01/25 10:28:15;;;;;;;59.60;31.58;;;;;;;4.10;100.00;103575.97;5070274;28;20053;-31
2022/01/25 10:30:50;;;;;;;56.67;30.90;;;;;;;4.10;100.00;103581.50;5061825;28;20040;-32
2022/01/25 10:33:21;;;;;;;57.15;29.67;;;;;;;4.10;100.00;103578.72;5070966;28;20486;-31
2022/01/25 10:35:50;;;;;;;58.75;31.63;;;;;;;4.14;100.00;103585.59;5069726;28;20098;-31
2022/01/25 10:38:23;;;;;;;56.25;30.05;;;;;;;4.15;100.00;103584.53;5070783;28;20407;-32
2022/01/25 10:40:57;;;;;;;56.45;31.67;;;;;;;4.17;100.00;103587.13;5070082;28;20048;-32
2022/01/25 10:43:26;;;;;;;53.92;29.75;;;;;;;4.18;100.00;103585.22;5070588;28;20143;-32
2022/01/25 10:46:09;;;;;;;56.20;29.85;;;;;;;4.18;100.00;103583.31;5070718;28;20086;-30
2022/01/25 10:48:38;;;;;;;56.35;30.38;;;;;;;4.17;100.00;103587.13;5070032;28;20048;-31
2022/01/25 10:51:16;;;;;;;50.13;26.60;;;;;;;4.21;100.00;103587.56;5070678;28;20040;-32
2022/01/25 10:53:43;;;;;;;44.42;25.23;;;;;;;4.22;100.00;103590.16;5070517;28;20057;-32
2022/01/25 10:56:12;;;;;;;53.15;28.98;;;;;;;4.25;100.00;103586.16;5068424;28;20040;-31
2022/01/25 10:58:43;;;;;;;60.65;32.63;;;;;;;4.26;100.00;103591.50;5071833;28;20051;-33
2022/01/25 11:01:11;;;;;;;59.25;31.55;;;;;;;4.26;100.00;103585.97;5074737;28;20050;-33
2022/01/25 11:03:42;;;;;;;53.55;29.05;;;;;;;4.28;100.00;103581.09;5074087;28;20491;-34
2022/01/25 11:06:15;;;;;;;54.88;29.45;;;;;;;4.32;100.00;103579.69;5074327;28;20041;-37
2022/01/25 11:08:46;;;;;;;53.40;28.88;;;;;;;4.32;100.00;103579.69;5063750;28;20072;-38
2022/01/25 11:11:24;;;;;;;55.28;31.63;;;;;;;4.33;100.00;103575.88;5073787;28;20045;-33
2022/01/25 11:13:53;;;;;;;57.17;31.00;;;;;;;4.31;100.00;103572.44;5063425;28;20052;-31
2022/01/25 11:16:21;;;;;;;51.35;29.90;;;;;;;4.29;100.00;103577.28;5073430;28;20048;-33
2022/01/25 11:18:49;;;;;;;55.78;31.83;;;;;;;4.30;100.00;103570.72;5074035;28;20060;-33
2022/01/25 11:21:21;;;;;;;59.30;31.60;;;;;;;4.32;100.00;103574.16;5074473;28;20045;-30
2022/01/25 11:23:50;;;;;;;51.42;28.75;;;;;;;4.30;100.00;103565.19;5070239;28;20406;-32
2022/01/25 11:26:17;;;;;;;72.10;36.17;;;;;;;4.28;100.00;103564.53;5074391;28;20040;-34
2022/01/25 11:28:45;;;;;;;56.60;31.88;;;;;;;4.25;100.00;103559.38;5073583;28;20052;-31
2022/01/25 11:31:19;;;;;;;60.88;32.42;;;;;;;4.24;100.00;103560.41;5073656;28;20046;-31
2022/01/25 11:33:48;;;;;;;66.80;34.17;;;;;;;4.19;100.00;103557.41;5073888;28;20045;-32
2022/01/25 11:36:16;;;;;;;57.42;31.80;;;;;;;4.17;100.00;103547.56;5073933;28;20128;-32
2022/01/25 11:38:48;;;;;;;64.07;34.20;;;;;;;4.17;100.00;103544.81;5073155;28;20052;-30
2022/01/25 11:41:19;;;;;;;57.78;31.90;;;;;;;4.15;100.00;103545.84;5074274;28;20483;-31
2022/01/25 11:44:08;;;;;;;57.80;31.77;;;;;;;4.14;100.00;103549.66;5073820;28;20044;-31
2022/01/25 11:46:36;;;;;;;59.78;30.98;;;;;;;4.06;100.00;103547.00;5074061;28;20053;-30
2022/01/25 11:49:06;;;;;;;60.72;33.65;;;;;;;4.07;100.00;103550.59;5073549;28;20060;-31
2022/01/25 11:51:34;;;;;;;61.92;32.67;;;;;;;4.07;100.00;103545.09;5073054;28;20410;-32
2022/01/25 11:54:05;;;;;;;57.13;31.33;;;;;;;4.10;100.00;103542.81;5073338;28;20399;-32
2022/01/25 11:56:33;;;;;;;57.80;30.33;;;;;;;4.15;100.00;103539.47;5073646;28;20036;-30
2022/01/25 11:59:01;;;;;;;58.95;30.63;;;;;;;4.21;100.00;103544.22;5072881;28;20051;-30
2022/01/25 12:01:29;;;;;;;54.58;29.38;;;;;;;4.24;100.00;103537.44;5073413;28;20048;-30
2022/01/25 12:03:59;;;;;;;54.40;29.52;;;;;;;4.25;100.00;103539.16;5073399;28;20067;-31
2022/01/25 12:06:34;;;;;;;46.80;25.88;;;;;;;4.27;100.00;103545.38;5072368;28;20067;-31
2022/01/25 12:11:59;;;;;;;51.20;26.98;;;;;;;4.26;100.00;103541.75;5072288;28;20056;-33
2022/01/25 12:14:30;;;;;;;46.42;25.35;;;;;;;4.27;100.00;103532.41;5072855;28;20434;-34
2022/01/25 12:17:10;;;;;;;51.17;27.90;;;;;;;4.28;100.00;103534.13;5073019;28;20406;-31
2022/01/25 12:19:44;;;;;;;50.03;26.90;;;;;;;4.23;100.00;103528.31;5072436;28;20441;-30
2022/01/25 12:22:15;;;;;;;53.92;27.05;;;;;;;4.23;100.00;103541.25;5073133;28;20455;-33
2022/01/25 12:24:53;;;;;;;54.13;28.13;;;;;;;4.22;100.00;103537.63;5073041;28;20578;-30
2022/01/25 12:27:34;;;;;;;57.75;30.50;;;;;;;4.23;100.00;103531.06;5072117;28;20052;-33
2022/01/25 12:30:08;;;;;;;62.67;30.52;;;;;;;4.21;100.00;103526.78;5073539;28;20468;-33
2022/01/25 12:32:37;;;;;;;54.10;28.58;;;;;;;4.22;100.00;103523.81;5072944;28;20179;-33
2022/01/25 12:35:11;;;;;;;49.60;26.48;;;;;;;4.25;100.00;103522.59;5071766;28;20521;-33